createdAt,value
2022-07-25T00:00:40.007Z,9.25
2022-07-25T00:03:10.259Z,5.50
2022-07-25T00:05:39.297Z,7.25
2022-07-25T00:08:07.602Z,5.25
2022-07-25T00:10:35.692Z,4.93
2022-07-25T00:13:05.132Z,4.85
2022-07-25T00:15:34.003Z,8.05
2022-07-25T00:18:03.712Z,6.03
2022-07-25T00:20:31.929Z,6.63
2022-07-25T00:22:59.990Z,7.35
2022-07-25T00:25:27.990Z,6.60
2022-07-25T00:27:56.252Z,6.72
2022-07-25T00:30:24.684Z,6.53
2022-07-25T00:32:53.275Z,7.20
2022-07-25T00:35:21.798Z,4.75
2022-07-25T00:37:49.863Z,5.35
2022-07-25T00:40:18.034Z,5.25
2022-07-25T00:42:46.144Z,6.13
2022-07-25T00:45:14.452Z,7.07
2022-07-25T00:47:42.599Z,8.40
2022-07-25T00:50:10.983Z,5.57
2022-07-25T00:52:39.154Z,7.03
2022-07-25T00:55:07.922Z,6.57
2022-07-25T00:57:35.920Z,5.85
2022-07-25T01:00:08.981Z,6.47
2022-07-25T01:02:37.395Z,5.45
2022-07-25T01:05:07.344Z,8.70
2022-07-25T01:07:39.801Z,6.38
2022-07-25T01:10:08.958Z,8.80
2022-07-25T01:12:54.335Z,9.27
2022-07-25T01:15:24.479Z,6.45
2022-07-25T01:17:52.853Z,7.55
2022-07-25T01:20:26.959Z,8.23
2022-07-25T01:22:56.216Z,6.25
2022-07-25T01:25:25.142Z,7.88
2022-07-25T01:27:55.995Z,8.65
2022-07-25T01:30:25.436Z,10.00
2022-07-25T01:32:53.981Z,10.32
2022-07-25T01:35:22.428Z,6.88
2022-07-25T01:37:50.653Z,5.20
2022-07-25T01:40:18.819Z,8.60
2022-07-25T01:42:47.039Z,9.38
2022-07-25T01:45:15.427Z,10.07
2022-07-25T01:47:43.450Z,6.07
2022-07-25T01:50:11.815Z,9.25
2022-07-25T01:52:40.585Z,6.72
2022-07-25T01:55:09.168Z,9.25
2022-07-25T01:57:38.240Z,9.25
2022-07-25T02:00:14.662Z,6.10
2022-07-25T02:02:46.938Z,7.13
2022-07-25T02:05:16.365Z,5.25
2022-07-25T02:07:44.359Z,6.72
2022-07-25T02:10:12.549Z,10.90
2022-07-25T02:12:40.816Z,7.10
2022-07-25T02:15:09.422Z,17.33
2022-07-25T02:17:37.731Z,6.13
2022-07-25T02:20:07.324Z,11.65
2022-07-25T02:22:35.490Z,6.00
2022-07-25T02:25:03.822Z,5.63
2022-07-25T02:27:32.192Z,9.05
2022-07-25T02:30:00.222Z,6.00
2022-07-25T02:32:28.400Z,6.40
2022-07-25T02:34:58.530Z,6.10
2022-07-25T02:37:26.545Z,5.93
2022-07-25T02:39:54.705Z,6.07
2022-07-25T02:42:23.178Z,8.55
2022-07-25T02:44:51.582Z,7.88
2022-07-25T02:47:19.759Z,6.85
2022-07-25T02:49:47.885Z,8.40
2022-07-25T02:52:15.971Z,13.27
2022-07-25T02:54:44.000Z,9.10
2022-07-25T02:57:12.046Z,7.20
2022-07-25T02:59:40.025Z,21.27
2022-07-25T03:02:08.100Z,17.45
2022-07-25T03:04:36.221Z,9.07
2022-07-25T03:07:04.582Z,7.22
2022-07-25T03:09:32.763Z,11.57
2022-07-25T03:12:00.731Z,11.80
2022-07-25T03:14:28.822Z,8.43
2022-07-25T03:16:57.029Z,8.80
2022-07-25T03:19:25.304Z,8.52
2022-07-25T03:21:53.213Z,7.10
2022-07-25T03:24:21.598Z,8.10
2022-07-25T03:26:49.783Z,10.48
2022-07-25T03:29:17.892Z,8.57
2022-07-25T03:31:46.611Z,7.15
2022-07-25T03:34:15.014Z,7.10
2022-07-25T03:36:43.076Z,8.40
2022-07-25T03:39:11.409Z,9.15
2022-07-25T03:41:39.640Z,8.05
2022-07-25T03:44:08.420Z,9.75
2022-07-25T03:46:36.792Z,6.88
2022-07-25T03:49:05.664Z,5.40
2022-07-25T03:51:33.785Z,7.35
2022-07-25T03:54:02.193Z,11.68
2022-07-25T03:56:31.610Z,6.28
2022-07-25T03:58:59.652Z,13.50
2022-07-25T04:01:28.034Z,8.60
2022-07-25T04:03:56.277Z,13.15
2022-07-25T04:06:24.778Z,12.93
2022-07-25T04:08:54.491Z,8.88
2022-07-25T04:11:23.115Z,15.00
2022-07-25T04:13:52.053Z,10.88
2022-07-25T04:16:22.723Z,7.93
2022-07-25T04:18:52.117Z,14.33
2022-07-25T04:21:20.364Z,10.65
2022-07-25T04:23:49.861Z,11.73
2022-07-25T04:26:18.982Z,12.70
2022-07-25T04:28:47.187Z,14.60
2022-07-25T04:31:15.830Z,9.02
2022-07-25T04:33:44.358Z,11.02
2022-07-25T04:36:12.847Z,9.02
2022-07-25T04:38:41.250Z,13.75
2022-07-25T04:41:09.237Z,12.80
2022-07-25T04:43:37.338Z,15.43
2022-07-25T04:46:06.074Z,17.02
2022-07-25T04:48:34.444Z,10.05
2022-07-25T04:51:02.401Z,17.13
2022-07-25T04:53:30.822Z,10.75
2022-07-25T04:55:58.917Z,17.08
2022-07-25T04:58:26.910Z,9.65
2022-07-25T05:00:55.306Z,5.93
2022-07-25T05:03:23.401Z,11.70
2022-07-25T05:05:52.055Z,10.82
2022-07-25T05:08:20.439Z,10.65
2022-07-25T05:10:48.696Z,12.07
2022-07-25T05:13:16.718Z,8.38
2022-07-25T05:15:44.845Z,13.25
2022-07-25T05:18:13.013Z,6.88
2022-07-25T05:20:41.446Z,10.07
2022-07-25T05:23:09.547Z,9.45
2022-07-25T05:25:37.615Z,6.85
2022-07-25T05:28:05.796Z,6.32
2022-07-25T05:30:39.346Z,5.90
2022-07-25T05:33:08.724Z,6.07
2022-07-25T05:35:37.088Z,6.13
2022-07-25T05:38:05.721Z,6.57
2022-07-25T05:40:33.770Z,8.98
2022-07-25T05:43:03.549Z,7.20
2022-07-25T05:45:32.292Z,7.72
2022-07-25T05:48:00.573Z,5.30
2022-07-25T05:50:28.691Z,6.35
2022-07-25T05:52:56.991Z,5.20
2022-07-25T05:55:25.011Z,5.45
2022-07-25T05:57:53.207Z,6.30
2022-07-25T06:00:21.245Z,4.80
2022-07-25T06:02:49.568Z,7.40
2022-07-25T06:05:17.893Z,7.50
2022-07-25T06:07:46.682Z,5.63
2022-07-25T06:10:14.788Z,5.00
2022-07-25T06:12:42.738Z,3.20
2022-07-25T06:15:12.625Z,4.18
2022-07-25T06:17:51.567Z,3.23
2022-07-25T06:20:19.729Z,6.43
2022-07-25T06:22:47.809Z,3.03
2022-07-25T06:25:16.211Z,3.67
2022-07-25T06:27:44.251Z,8.00
2022-07-25T06:30:19.574Z,3.90
2022-07-25T06:32:50.372Z,2.78
2022-07-25T06:37:48.088Z,2.83
2022-07-25T06:40:16.604Z,3.95
2022-07-25T06:42:47.162Z,3.35
2022-07-25T06:45:15.774Z,3.90
2022-07-25T06:47:45.386Z,2.90
2022-07-25T06:50:18.742Z,2.50
2022-07-25T06:52:51.105Z,2.60
2022-07-25T06:55:19.151Z,4.10
2022-07-25T06:57:47.373Z,1.42
2022-07-25T07:00:16.103Z,2.75
2022-07-25T07:03:01.692Z,3.10
2022-07-25T07:05:34.771Z,1.88
2022-07-25T07:08:03.969Z,5.15
2022-07-25T07:10:32.333Z,3.15
2022-07-25T07:13:13.135Z,1.50
2022-07-25T07:18:15.074Z,1.60
2022-07-25T07:20:43.852Z,2.05
2022-07-25T07:23:12.308Z,2.05
2022-07-25T07:25:47.394Z,2.75
2022-07-25T07:31:14.692Z,5.22
2022-07-25T07:33:33.829Z,7.55
2022-07-25T07:36:02.628Z,3.03
2022-07-25T07:38:30.628Z,2.72
2022-07-25T07:40:59.197Z,2.10
2022-07-25T07:43:29.943Z,4.10
2022-07-25T07:46:01.550Z,3.22
2022-07-25T07:48:31.125Z,3.42
2022-07-25T07:51:01.339Z,1.55
2022-07-25T07:53:48.470Z,3.00
2022-07-25T07:56:19.216Z,4.13
2022-07-25T07:58:47.621Z,2.85
2022-07-25T08:01:16.075Z,2.47
2022-07-25T08:03:44.495Z,3.00
2022-07-25T08:06:12.574Z,2.67
2022-07-25T08:08:41.196Z,4.75
2022-07-25T08:11:09.484Z,2.13
2022-07-25T08:13:38.386Z,2.13
2022-07-25T08:16:07.301Z,2.10
2022-07-25T08:18:35.657Z,2.67
2022-07-25T08:21:06.557Z,3.35
2022-07-25T08:23:38.528Z,4.32
2022-07-25T08:26:06.899Z,2.40
2022-07-25T08:28:34.981Z,3.20
2022-07-25T08:31:05.902Z,2.28
2022-07-25T08:33:34.217Z,2.78
2022-07-25T08:36:02.405Z,5.80
2022-07-25T08:38:30.495Z,2.72
2022-07-25T08:41:00.042Z,1.77
2022-07-25T08:43:33.772Z,2.10
2022-07-25T08:46:02.782Z,2.88
2022-07-25T08:48:31.405Z,1.85
2022-07-25T08:51:00.812Z,2.03
2022-07-25T08:53:33.244Z,3.03
2022-07-25T08:56:11.164Z,1.73
2022-07-25T08:58:41.601Z,1.75
2022-07-25T09:01:10.133Z,3.72
2022-07-25T09:03:38.779Z,2.15
2022-07-25T09:06:22.208Z,2.30
2022-07-25T09:08:57.084Z,2.45
2022-07-25T09:11:34.572Z,2.70
2022-07-25T09:14:14.749Z,3.00
2022-07-25T09:16:45.996Z,3.97
2022-07-25T09:19:20.982Z,2.78
2022-07-25T09:22:07.001Z,1.50
2022-07-25T09:24:47.100Z,2.58
2022-07-25T09:27:15.721Z,3.88
2022-07-25T09:29:44.809Z,3.63
2022-07-25T09:32:20.605Z,3.97
2022-07-25T09:34:51.042Z,3.55
2022-07-25T09:37:26.030Z,4.22
2022-07-25T09:39:54.473Z,4.18
2022-07-25T09:42:32.587Z,2.63
2022-07-25T09:45:15.039Z,2.63
2022-07-25T09:47:56.655Z,4.25
2022-07-25T09:50:29.014Z,3.20
2022-07-25T09:53:00.961Z,2.90
2022-07-25T09:55:30.728Z,3.17
2022-07-25T09:57:58.952Z,6.78
2022-07-25T10:00:29.647Z,5.80
2022-07-25T10:03:24.680Z,3.28
2022-07-25T10:06:06.146Z,5.03
2022-07-25T10:08:40.486Z,2.90
2022-07-25T10:11:30.411Z,1.95
2022-07-25T10:14:12.676Z,5.82
2022-07-25T10:16:48.862Z,3.22
2022-07-25T10:19:35.277Z,3.03
2022-07-25T10:22:05.718Z,4.13
2022-07-25T10:24:36.107Z,5.10
2022-07-25T10:27:14.624Z,3.78
2022-07-25T10:29:43.111Z,3.83
2022-07-25T10:32:14.709Z,2.45
2022-07-25T10:34:55.428Z,3.78
2022-07-25T10:37:29.805Z,4.97
2022-07-25T10:39:57.942Z,3.05
2022-07-25T10:42:27.204Z,7.35
2022-07-25T10:44:59.317Z,5.97
2022-07-25T10:47:28.749Z,2.28
2022-07-25T10:50:25.179Z,5.78
2022-07-25T10:53:01.877Z,3.05
2022-07-25T10:55:30.380Z,4.30
2022-07-25T10:58:21.650Z,4.82
2022-07-25T11:03:22.203Z,1.92
2022-07-25T11:05:52.037Z,2.35
2022-07-25T11:08:30.195Z,3.90
2022-07-25T11:10:59.078Z,2.22
2022-07-25T11:13:27.226Z,1.80
2022-07-25T11:15:59.205Z,4.05
2022-07-25T11:18:42.805Z,3.60
2022-07-25T11:21:11.323Z,2.58
2022-07-25T11:23:41.130Z,1.90
2022-07-25T11:26:15.106Z,1.80
2022-07-25T11:28:49.646Z,2.90
2022-07-25T11:31:22.954Z,2.13
2022-07-25T11:33:51.195Z,2.38
2022-07-25T11:36:19.527Z,2.20
2022-07-25T11:38:51.089Z,2.15
2022-07-25T11:41:30.546Z,4.53
2022-07-25T11:43:58.749Z,2.85
2022-07-25T11:46:26.759Z,2.10
2022-07-25T11:49:06.792Z,3.00
2022-07-25T11:51:39.259Z,2.35
2022-07-25T11:54:12.036Z,2.47
2022-07-25T11:56:43.076Z,2.83
2022-07-25T11:59:12.186Z,10.07
2022-07-25T12:01:45.254Z,3.67
2022-07-25T12:04:19.225Z,2.63
2022-07-25T12:06:50.499Z,2.30
2022-07-25T12:09:22.135Z,3.33
2022-07-25T12:11:50.606Z,3.00
2022-07-25T12:14:18.792Z,7.95
2022-07-25T12:16:47.222Z,6.75
2022-07-25T12:19:21.901Z,3.13
2022-07-25T12:21:50.048Z,3.80
2022-07-25T12:24:18.112Z,2.92
2022-07-25T12:26:46.270Z,2.28
2022-07-25T12:29:14.548Z,3.33
2022-07-25T12:31:42.831Z,4.45
2022-07-25T12:34:10.889Z,2.63
2022-07-25T12:36:44.185Z,2.75
2022-07-25T12:39:12.769Z,2.08
2022-07-25T12:41:42.931Z,3.88
2022-07-25T12:44:11.471Z,2.65
2022-07-25T12:46:45.861Z,3.33
2022-07-25T12:49:17.426Z,4.32
2022-07-25T12:51:45.915Z,4.88
2022-07-25T12:54:21.663Z,2.67
2022-07-25T12:56:51.295Z,2.58
2022-07-25T12:59:19.478Z,3.17
2022-07-25T13:01:47.995Z,2.03
2022-07-25T13:04:16.500Z,2.35
2022-07-25T13:06:44.523Z,3.97
2022-07-25T13:09:12.687Z,2.30
2022-07-25T13:11:42.574Z,2.20
2022-07-25T13:14:10.688Z,3.33
2022-07-25T13:16:41.344Z,5.75
2022-07-25T13:19:10.306Z,3.38
2022-07-25T13:21:39.338Z,2.95
2022-07-25T13:24:08.101Z,3.83
2022-07-25T13:26:38.309Z,2.15
2022-07-25T13:29:09.602Z,1.55
2022-07-25T13:31:42.325Z,1.30
2022-07-25T13:34:10.999Z,2.03
2022-07-25T13:36:40.688Z,3.88
2022-07-25T13:39:09.581Z,2.70
2022-07-25T13:41:37.918Z,5.57
2022-07-25T13:44:06.187Z,1.98
2022-07-25T13:46:35.836Z,1.80
2022-07-25T13:49:04.386Z,2.55
2022-07-25T13:51:32.979Z,3.35
2022-07-25T13:54:01.084Z,4.53
2022-07-25T13:56:29.466Z,2.88
2022-07-25T13:58:57.476Z,3.13
2022-07-25T14:01:28.778Z,4.82
2022-07-25T14:03:57.564Z,2.35
2022-07-25T14:06:25.505Z,3.30
2022-07-25T14:08:53.748Z,3.35
2022-07-25T14:11:24.886Z,2.58
2022-07-25T14:13:57.512Z,3.22
2022-07-25T14:16:25.682Z,2.25
2022-07-25T14:18:55.150Z,4.40
2022-07-25T14:21:23.946Z,5.15
2022-07-25T14:23:53.919Z,2.10
2022-07-25T14:26:22.155Z,3.17
2022-07-25T14:28:50.419Z,2.47
2022-07-25T14:31:18.725Z,3.22
2022-07-25T14:33:47.767Z,3.17
2022-07-25T14:36:15.884Z,2.85
2022-07-25T14:38:44.515Z,5.28
2022-07-25T14:41:13.376Z,1.95
2022-07-25T14:43:42.492Z,2.67
2022-07-25T14:46:10.912Z,2.55
2022-07-25T14:48:39.408Z,5.05
2022-07-25T14:51:08.088Z,2.50
2022-07-25T14:53:37.203Z,1.98
2022-07-25T14:56:06.928Z,3.97
2022-07-25T14:58:35.679Z,4.97
2022-07-25T15:01:04.559Z,1.92
2022-07-25T15:03:32.934Z,1.73
2022-07-25T15:06:02.238Z,3.35
2022-07-25T15:08:30.502Z,3.17
2022-07-25T15:10:58.738Z,2.35
2022-07-25T15:13:31.807Z,3.28
2022-07-25T15:16:01.961Z,2.33
2022-07-25T15:18:30.498Z,5.80
2022-07-25T15:20:59.674Z,4.07
2022-07-25T15:23:30.600Z,3.35
2022-07-25T15:26:02.619Z,2.58
2022-07-25T15:28:34.772Z,2.95
2022-07-25T15:31:03.779Z,2.38
2022-07-25T15:33:32.675Z,1.48
2022-07-25T15:36:00.775Z,3.35
2022-07-25T15:38:29.418Z,2.95
2022-07-25T15:40:59.066Z,1.77
2022-07-25T15:43:27.669Z,4.72
2022-07-25T15:45:55.868Z,2.67
2022-07-25T15:48:24.164Z,4.28
2022-07-25T15:50:58.338Z,3.28
2022-07-25T15:53:26.747Z,2.30
2022-07-25T15:55:55.228Z,4.55
2022-07-25T15:58:24.443Z,3.47
2022-07-25T16:00:52.916Z,6.30
2022-07-25T16:03:21.937Z,3.15
2022-07-25T16:05:50.500Z,3.40
2022-07-25T16:08:18.865Z,4.95
2022-07-25T16:10:46.977Z,2.45
2022-07-25T16:13:15.235Z,3.35
2022-07-25T16:15:43.307Z,2.60
2022-07-25T16:18:11.505Z,3.10
2022-07-25T16:20:39.706Z,3.33
2022-07-25T16:23:08.001Z,2.33
2022-07-25T16:25:36.182Z,2.80
2022-07-25T16:28:05.651Z,2.88
2022-07-25T16:30:33.769Z,5.00
2022-07-25T16:33:01.886Z,1.83
2022-07-25T16:35:32.913Z,4.38
2022-07-25T16:38:01.302Z,6.43
2022-07-25T16:40:30.854Z,4.60
2022-07-25T16:43:00.067Z,6.85
2022-07-25T16:45:28.993Z,6.40
2022-07-25T16:47:57.468Z,4.13
2022-07-25T16:50:50.303Z,4.40
2022-07-25T16:53:21.591Z,2.92
2022-07-25T16:55:49.948Z,2.25
2022-07-25T16:58:18.176Z,3.70
2022-07-25T17:00:46.266Z,3.80
2022-07-25T17:03:14.755Z,2.85
2022-07-25T17:05:42.960Z,2.45
2022-07-25T17:08:11.557Z,6.00
2022-07-25T17:10:40.754Z,3.22
2022-07-25T17:13:09.039Z,4.35
2022-07-25T17:15:37.802Z,2.40
2022-07-25T17:18:06.248Z,2.83
2022-07-25T17:20:34.851Z,1.60
2022-07-25T17:23:02.937Z,5.00
2022-07-25T17:25:32.328Z,3.63
2022-07-25T17:28:00.860Z,9.63
2022-07-25T17:30:29.105Z,8.02
2022-07-25T17:32:58.713Z,11.45
2022-07-25T17:35:27.544Z,25.65
2022-07-25T17:37:55.758Z,17.08
2022-07-25T17:40:24.073Z,9.57
2022-07-25T17:42:52.527Z,13.70
2022-07-25T17:45:21.014Z,14.35
2022-07-25T17:47:49.529Z,16.52
2022-07-25T17:50:18.011Z,13.07
2022-07-25T17:52:46.283Z,7.40
2022-07-25T17:55:14.641Z,23.65
2022-07-25T17:57:43.656Z,26.27
2022-07-25T18:00:13.825Z,10.48
2022-07-25T18:02:42.386Z,12.98
2022-07-25T18:05:11.088Z,7.20
2022-07-25T18:07:45.783Z,9.27
2022-07-25T18:10:15.171Z,7.00
2022-07-25T18:12:43.549Z,4.20
2022-07-25T18:15:12.656Z,3.30
2022-07-25T18:17:43.936Z,5.18
2022-07-25T18:20:14.343Z,4.57
2022-07-25T18:22:42.901Z,8.05
2022-07-25T18:25:13.419Z,6.55
2022-07-25T18:27:46.757Z,6.03
2022-07-25T18:30:16.216Z,6.00
2022-07-25T18:32:45.561Z,4.60
2022-07-25T18:35:15.134Z,6.45
2022-07-25T18:37:43.951Z,6.32
2022-07-25T18:40:13.642Z,5.88
2022-07-25T18:42:41.796Z,4.32
2022-07-25T18:45:12.357Z,7.63
2022-07-25T18:47:40.944Z,5.68
2022-07-25T18:50:10.184Z,5.55
2022-07-25T18:52:38.767Z,2.95
2022-07-25T18:55:09.472Z,7.97
2022-07-25T18:57:37.609Z,9.10
2022-07-25T19:01:46.896Z,5.88
2022-07-25T19:04:41.060Z,7.13
2022-07-25T19:07:10.229Z,9.75
2022-07-25T19:09:38.237Z,8.45
2022-07-25T19:12:06.969Z,5.55
2022-07-25T19:14:34.979Z,6.15
2022-07-25T19:17:04.099Z,4.05
2022-07-25T19:19:33.092Z,5.35
2022-07-25T19:22:01.440Z,6.15
2022-07-25T19:24:30.183Z,9.00
2022-07-25T19:26:59.392Z,5.90
2022-07-25T19:29:27.526Z,5.38
2022-07-25T19:31:56.036Z,4.90
2022-07-25T19:34:24.340Z,7.65
2022-07-25T19:36:52.945Z,8.52
2022-07-25T19:39:21.122Z,8.73
2022-07-25T19:41:51.139Z,5.10
2022-07-25T19:44:19.474Z,11.07
2022-07-25T19:46:49.187Z,6.50
2022-07-25T19:49:17.895Z,8.20
2022-07-25T19:51:45.954Z,6.38
2022-07-25T19:54:14.566Z,6.18
2022-07-25T19:56:46.033Z,9.18
2022-07-25T20:01:43.382Z,9.27
2022-07-25T20:04:11.869Z,5.55
2022-07-25T20:06:40.550Z,8.23
2022-07-25T20:09:10.000Z,7.30
2022-07-25T20:11:39.352Z,9.13
2022-07-25T20:14:08.250Z,8.73
2022-07-25T20:16:37.910Z,11.05
2022-07-25T20:19:09.024Z,6.35
2022-07-25T20:21:38.811Z,11.55
2022-07-25T20:24:07.866Z,6.60
2022-07-25T20:26:36.615Z,7.95
2022-07-25T20:29:05.577Z,5.00
2022-07-25T20:31:36.161Z,6.90
2022-07-25T20:34:04.527Z,8.05
2022-07-25T20:36:32.526Z,10.30
2022-07-25T20:39:00.713Z,9.20
2022-07-25T20:41:29.530Z,9.82
2022-07-25T20:43:57.838Z,8.32
2022-07-25T20:46:26.061Z,8.98
2022-07-25T20:48:54.227Z,7.82
2022-07-25T20:51:22.412Z,7.32
2022-07-25T20:53:51.642Z,9.93
2022-07-25T20:56:22.264Z,8.38
2022-07-25T20:58:50.533Z,6.95
2022-07-25T21:01:19.103Z,7.03
2022-07-25T21:03:47.474Z,7.18
2022-07-25T21:06:16.157Z,10.38
2022-07-25T21:08:44.266Z,6.95
2022-07-25T21:11:12.687Z,6.75
2022-07-25T21:13:41.120Z,10.25
2022-07-25T21:16:09.686Z,6.88
2022-07-25T21:18:37.824Z,9.30
2022-07-25T21:21:11.726Z,8.98
2022-07-25T21:23:42.083Z,6.28
2022-07-25T21:26:10.346Z,6.15
2022-07-25T21:28:38.352Z,9.55
2022-07-25T21:31:06.564Z,9.52
2022-07-25T21:33:34.777Z,10.15
2022-07-25T21:36:04.405Z,8.60
2022-07-25T21:38:34.928Z,10.25
2022-07-25T21:41:03.384Z,8.30
2022-07-25T21:43:31.786Z,6.85
2022-07-25T21:46:00.272Z,6.57
2022-07-25T21:48:47.435Z,7.35
2022-07-25T21:51:19.324Z,7.88
2022-07-25T21:53:54.481Z,11.23
2022-07-25T21:56:22.914Z,12.15
2022-07-25T21:58:50.907Z,7.75
2022-07-25T22:01:20.934Z,7.68
2022-07-25T22:03:49.477Z,8.85
2022-07-25T22:06:19.301Z,7.80
2022-07-25T22:08:48.105Z,5.85
2022-07-25T22:11:38.583Z,8.15
2022-07-25T22:14:05.296Z,10.48
2022-07-25T22:16:33.569Z,8.45
2022-07-25T22:19:02.402Z,7.18
2022-07-25T22:21:30.713Z,9.38
2022-07-25T22:23:59.026Z,6.03
2022-07-25T22:26:27.163Z,9.93
2022-07-25T22:28:56.108Z,5.15
2022-07-25T22:31:24.540Z,6.07
2022-07-25T22:33:53.216Z,8.52
2022-07-25T22:36:21.597Z,3.92
2022-07-25T22:38:50.689Z,5.18
2022-07-25T22:41:18.750Z,5.78
2022-07-25T22:43:58.394Z,8.38
2022-07-25T22:46:31.674Z,5.25
2022-07-25T22:49:00.637Z,6.10
2022-07-25T22:51:29.792Z,5.90
2022-07-25T22:53:58.998Z,8.68
2022-07-25T22:56:28.556Z,10.15
2022-07-25T22:58:57.367Z,8.75
2022-07-25T23:01:26.244Z,5.90
2022-07-25T23:03:54.677Z,9.88
2022-07-25T23:06:23.270Z,5.90
2022-07-25T23:08:51.971Z,6.57
2022-07-25T23:11:20.768Z,5.45
2022-07-25T23:13:48.911Z,7.65
2022-07-25T23:16:17.150Z,7.47
2022-07-25T23:18:45.582Z,4.22
2022-07-25T23:21:13.773Z,4.70
2022-07-25T23:23:42.599Z,6.15
2022-07-25T23:26:11.062Z,7.10
2022-07-25T23:28:39.260Z,4.97
2022-07-25T23:31:08.585Z,6.75
2022-07-25T23:33:36.865Z,6.18
2022-07-25T23:36:05.525Z,7.32
2022-07-25T23:38:33.591Z,6.15
2022-07-25T23:41:01.929Z,7.60
2022-07-25T23:43:59.597Z,8.43
2022-07-25T23:46:18.548Z,4.28
2022-07-25T23:48:50.440Z,7.63
2022-07-25T23:51:19.081Z,5.28
2022-07-25T23:53:47.505Z,6.15
2022-07-25T23:56:20.595Z,6.45
2022-07-25T23:58:50.354Z,5.10
